Weather observations for the past three days for
Granite Falls, Granite Falls Municipal Airport/Lenzen-Roe Memorial Field
Metric (Imperial)
Date Time (cdt) Wind (kph) Vis. (km) Weather Sky Cond. Temperature (ºC) Relative Humidity Wind Chill (°C) Heat Index (°C) Pressure Precipitation (cm)
Air Dwpt 6 hour altimeter (cm) sea level (mb) 1 hr 3 hr 6 hr
Max. Min.
08 17:55 NW 31 G 48 16.09 Fair CLR 22.6 -5.6 15% 75.31 0.0
08 17:35 NW 41 G 48 16.09 Partly Cloudy and Breezy SCT100 23.5 -5.5 14% 75.31 0.0
08 17:15 NW 37 G 50 16.09 Partly Cloudy and Breezy SCT100 22.7 -4.1 16% 75.29 0.0
08 16:55 W 37 G 48 16.09 Partly Cloudy and Breezy SCT100 24 -2.9 17% 24 75.29 0.0
08 16:35 NW 33 G 44 16.09 Partly Cloudy and Breezy SCT100 22.8 -2.9 18% 75.29 0.0
08 16:15 W 30 G 56 16.09 Partly Cloudy SCT100 23.5 -3.8 16% 75.31 0.0
08 15:55 NW 26 G 46 16.09 Mostly Cloudy BKN100 23.8 -3.3 16% 75.31 0.0
08 15:35 NW 35 G 52 16.09 Mostly Cloudy and Breezy BKN100 23.1 -3.5 17% 75.31 0.0
08 15:15 W 31 G 56 16.09 Partly Cloudy SCT090 23.4 -2.6 18% 75.34 0.0
08 14:55 NW 41 G 56 16.09 Mostly Cloudy and Breezy BKN100 23.7 -2.2 18% 75.34 0.0
08 14:35 W 37 G 48 16.09 Partly Cloudy and Breezy SCT100 23.5 -2.3 18% 75.34 0.0
08 14:15 NW 35 G 48 16.09 Mostly Cloudy and Breezy BKN100 BKN120 23.6 -3.7 16% 75.36 0.0
08 13:55 W 30 G 39 16.09 Mostly Cloudy BKN100 24 -3.5 16% 24 75.36 0.0
08 13:35 W 28 G 44 16.09 Mostly Cloudy BKN100 BKN120 22.1 -3.5 18% 75.41 0.0
08 13:15 W 30 G 41 16.09 Mostly Cloudy SCT090 BKN120 21.2 -2.4 20% 75.41 0.0
08 12:55 W 39 G 50 16.09 Mostly Cloudy and Breezy SCT070 BKN100 BKN120 21.9 -4.6 22.7 8.9 17% 75.46 0.0
08 12:35 W 35 G 46 16.09 Mostly Cloudy and Breezy BKN110 22.6 -6.4 14% 75.46 0.0
08 12:15 W 33 G 41 16.09 Partly Cloudy and Breezy SCT120 22.1 -6.5 14% 75.46 0.0
08 11:55 W 35 G 44 16.09 Fair and Breezy CLR 22.3 -6.1 14% 75.49 0.0
08 11:35 W 22 G 33 16.09 Fair CLR 21.6 -6.3 15% 75.49 0.0
08 11:15 W 19 G 30 16.09 Fair CLR 21.6 -6.5 15% 75.51 0.0
08 10:55 W 22 G 30 16.09 Fair CLR 21 -6.3 15% 75.54 0.0
08 10:35 W 20 G 30 16.09 Fair CLR 20.4 -6.7 16% 75.54 0.0
08 10:15 W 24 16.09 Fair CLR 20.1 -6.4 16% 75.57 0.0
08 09:55 W 17 16.09 Partly Cloudy SCT090 19.1 -5 19% 75.59 0.0
08 09:35 W 19 16.09 Partly Cloudy SCT090 18.4 -3.9 22% 75.59 0.0
08 09:15 W 15 16.09 Partly Cloudy SCT090 17.1 -3.7 24% 75.62 0.0
08 08:55 SW 22 16.09 Partly Cloudy SCT090 15.5 -4.2 26% 75.62 0.0
08 08:35 SW 15 16.09 Partly Cloudy SCT090 SCT120 13 -3.4 32% 75.62 0.0
08 08:15 SW 15 16.09 Mostly Cloudy BKN100 12.7 -3.1 33% 75.64 0.0
08 07:55 SW 15 16.09 Mostly Cloudy BKN100 11.3 -3.4 36% 75.64 0.0
08 07:35 SW 15 16.09 Overcast OVC100 10.3 -3.8 37% 75.62 0.0
08 07:15 SW 15 16.09 Overcast OVC100 9.4 -4.1 39% 7 75.62 0.0
08 06:55 SW 15 16.09 Overcast OVC090 8.6 -4.7 8.6 4 39% 6 75.62 0.0
08 06:35 SW 15 16.09 Mostly Cloudy SCT090 BKN110 7.8 -4.6 41% 6 75.62 0.0
08 06:15 SW 17 16.09 Partly Cloudy SCT110 7.3 -4.9 42% 5 75.62 0.0
08 05:55 SW 9 16.09 Fair CLR 6.1 -4.7 46% 4 75.62 0.0
08 05:35 S 13 16.09 Fair CLR 5.8 -4.7 47% 3 75.62 0.0
08 05:15 S 17 16.09 Fair CLR 5.3 -4.7 49% 2 75.62 0.0
08 04:55 S 15 16.09 Fair CLR 4.1 -5 52% 1 75.64 0.0
08 04:35 S 15 16.09 Fair CLR 6.1 -4.7 46% 3 75.64 0.0
08 04:15 S 17 16.09 Fair CLR 6.4 -5 44% 4 75.64 0.0
08 03:55 S 17 16.09 Fair CLR 5.6 -4.9 47% 3 75.64 0.0
08 03:35 S 15 16.09 Fair CLR 6 -5.1 45% 3 75.67 0.0
08 03:15 S 17 16.09 Fair CLR 6.7 -5.6 41% 4 75.67 0.0
08 02:55 S 17 16.09 Fair CLR 6.9 -6 40% 4 75.69 0.0
08 02:35 S 15 16.09 Fair CLR 5 -5.2 48% 2 75.69 0.0
08 02:15 S 13 16.09 Fair CLR 5.6 -5.1 46% 3 75.69 0.0
08 01:55 S 13 16.09 Fair CLR 5.9 -5 46% 3 75.72 0.0
08 01:35 S 13 16.09 Fair CLR 5.1 -5 48% 3 75.72 0.0
08 01:15 S 13 16.09 Fair CLR 5.1 -5.3 47% 3 75.72 0.0
08 00:55 S 15 16.09 Fair CLR 4.4 -5.6 16.7 4 49% 1 75.72 0.0
08 00:35 S 15 16.09 Fair CLR 4.8 -5.8 47% 2 75.74 0.0
08 00:15 S 11 16.09 Fair CLR 6 -6 42% 4 75.74 0.0
07 23:55 S 11 16.09 Fair CLR 6.5 -5.8 41% 5 75.74 0.0
07 23:35 S 13 16.09 Fair CLR 6.2 -5.7 43% 4 75.74 0.0
07 23:15 S 13 16.09 Fair CLR 6.2 -6.3 41% 4 75.77 0.0
07 22:55 S 9 16.09 Fair CLR 5.5 -6.2 43% 4 75.77 0.0
07 22:35 S 7 16.09 Fair CLR 7.4 -7.2 35% 6 75.77 0.0
07 22:15 Calm 16.09 Fair CLR 8.9 -7.5 31% 75.77 0.0
07 21:55 Calm 16.09 Fair CLR 10.2 -7 29% 75.77 0.0
07 21:35 Calm 16.09 Fair CLR 8.1 -6.6 35% 75.77 0.0
07 21:15 Calm 16.09 Fair CLR 12.8 -7.5 24% 75.77 0.0
07 20:55 N 6 16.09 Fair CLR 12.9 -7.4 24% 75.77 0.0
07 20:35 N 6 16.09 Fair CLR 13.7 -7.5 22% 75.74 0.0
07 20:15 N 7 16.09 Fair CLR 14.2 -7.6 22% 75.74 0.0
07 19:55 N 11 16.09 Fair CLR 15 -8.2 19% 75.74 0.0
07 19:35 N 15 16.09 Fair CLR 15.8 -8.3 18% 75.72 0.0
07 19:15 N 11 16.09 Fair CLR 16.3 -8.6 17% 75.74 0.0
07 18:55 NW 13 16.09 Fair CLR 16.5 -8.4 18.2 14.4 17% 75.72 0.0
07 18:35 N 19 16.09 Fair CLR 17.2 -8.2 17% 75.74 0.0
07 18:15 NW 15 G 30 16.09 Fair CLR 17.5 -9.3 15% 75.74 0.0
07 17:55 W 20 G 26 16.09 Fair CLR 17.4 -8.8 16% 75.74 0.0
07 17:35 NW 24 16.09 Fair CLR 17.5 -9.3 15% 75.74 0.0
07 17:15 NW 22 G 31 16.09 Fair CLR 17.8 -8.2 16% 75.77 0.0
07 16:55 NW 15 G 28 16.09 Fair CLR 18.2 -8.9 15% 75.77 0.0
07 16:35 W 28 G 39 16.09 Fair CLR 18.1 -8.8 15% 75.77 0.0
07 16:15 W 22 G 37 16.09 Fair CLR 18.2 -8.6 15% 75.77 0.0
07 15:55 W 13 G 35 16.09 Fair CLR 17.5 -7.9 17% 75.79 0.0
07 15:35 NW 17 G 28 16.09 Fair CLR 17.2 -7.6 18% 75.79 0.0
07 15:15 W 22 G 35 16.09 Fair CLR 17.2 -8.2 17% 75.82 0.0
07 14:55 W 11 G 28 16.09 Fair CLR 16.5 -8.1 18% 75.84 0.0
07 14:35 W 13 16.09 Fair CLR 16.2 -9.1 17% 75.84 0.0
07 14:15 NW 17 G 30 16.09 Fair CLR 15.5 -8.4 19% 75.84 0.0
07 13:55 NW 15 16.09 Fair CLR 15.4 -8.2 19% 75.87 0.0
07 13:35 NW 6 16.09 Fair CLR 15 -8.5 19% 75.87 0.0
07 13:15 NW 17 16.09 Fair CLR 14.5 -7.1 22% 75.9 0.0
07 12:55 NW 15 G 28 16.09 Fair CLR 14.4 -7.1 14.4 2.9 22% 75.9 0.0
07 12:35 W 13 16.09 Fair CLR 14.1 -7.6 22% 75.92 0.0
07 12:15 NW 15 16.09 Fair CLR 13.8 -7.3 23% 75.95 0.0
07 11:55 Calm 16.09 Fair CLR 13.4 -7.1 24% 75.95 0.0
07 11:35 NW 13 16.09 Fair CLR 12.8 -6.9 25% 75.97 0.0
07 11:15 E 7 16.09 Fair CLR 12.4 -6.6 26% 75.97 0.0
07 10:55 Calm 16.09 Fair CLR 12.3 -6.8 26% 75.97 0.0
07 10:35 SW 6 16.09 Fair CLR 11.7 -7.6 25% 75.97 0.0
07 10:15 Calm 16.09 Fair CLR 11 -7.5 27% 75.97 0.0
07 09:55 E 6 16.09 Fair CLR 10.8 -6.6 29% 75.97 0.0
07 09:35 Calm 16.09 Fair CLR 10.3 -7 29% 75.97 0.0
07 09:15 S 6 16.09 Fair CLR 10 -5.4 34% 76 0.0
07 08:55 Calm 16.09 Fair CLR 9.4 -3.1 42% 75.97 0.0
07 08:35 S 9 16.09 Fair CLR 8.5 -3.3 44% 7 75.97 0.0
07 08:15 S 6 16.09 Fair CLR 7.5 -3.3 47% 75.97 0.0
07 07:55 SE 9 16.09 Fair CLR 6.6 -3.7 48% 5 75.97 0.0
07 07:35 Calm 16.09 Fair CLR 5.2 -2.9 56% 75.97 0.0
07 07:15 E 6 16.09 Fair CLR 3.8 -3.4 60% 75.97 0.0
07 06:55 SE 6 16.09 Fair CLR 2.7 -4.1 4.5 0.3 61% 75.97 0.0
07 06:35 SE 9 16.09 Fair CLR 2.6 -4.1 62% 0 75.97 0.0
07 06:15 SE 7 16.09 Fair CLR 2.2 -4.5 62% 0 75.97 0.0
07 05:55 SE 7 16.09 Fair CLR 2.9 -4.1 60% 1 76 0.0
07 05:35 E 6 16.09 Partly Cloudy SCT100 SCT120 3.5 -4 58% 76 0.0
07 05:15 SE 13 16.09 Mostly Cloudy BKN100 4.4 -4.1 54% 2 76 0.0
07 04:55 S 11 16.09 Mostly Cloudy SCT090 BKN110 3.3 -3.9 60% 1 76 0.0
07 04:35 S 9 16.09 Overcast OVC100 3.5 -3.4 61% 1 76.02 0.0
07 04:15 S 9 16.09 Mostly Cloudy SCT075 SCT090 BKN110 3.5 -3.6 60% 1 76.05 0.0
07 03:55 SE 9 16.09 Mostly Cloudy SCT060 SCT075 BKN100 3.5 -4 58% 1 76.05 0.0
07 03:35 S 9 16.09 Mostly Cloudy SCT060 BKN070 BKN085 2.8 -3 66% 1 76.05 0.0
07 03:15 Calm 16.09 Overcast SCT046 BKN060 OVC080 3.6 -3.3 61% 76.05 0.0
07 02:55 S 7 16.09 Overcast SCT036 BKN060 OVC090 3.1 -3.9 60% 1 76.05 0.0
07 02:35 SE 6 16.09 Overcast SCT032 BKN042 OVC070 3.5 -4 58% 76.05 0.0
07 02:15 SE 6 16.09 Mostly Cloudy SCT065 BKN070 BKN095 3.4 -4.5 57% 76.07 0.0
07 01:55 SE 7 16.09 Partly Cloudy SCT095 2 -4.6 62% 0 76.1 0.0
07 01:35 SE 7 16.09 Fair CLR 0.8 -5.2 65% -1 76.12 0.0
07 01:15 Calm 16.09 Partly Cloudy SCT110 2 -4.6 62% 76.12 0.0
07 00:55 Calm 16.09 Fair CLR 2.5 -4.6 9.6 2.5 60% 76.15 0.0
07 00:35 Calm 16.09 Fair CLR 2.5 -4.6 60% 76.15 0.0
07 00:15 Calm 16.09 Partly Cloudy SCT095 4 -4.5 54% 76.15 0.0
06 23:55 Calm 16.09 Mostly Cloudy BKN095 4.5 -4.3 53% 76.15 0.0
06 23:35 NE 6 16.09 Overcast OVC095 4.8 -4.4 52% 76.17 0.0
06 23:15 N 6 16.09 Mostly Cloudy BKN095 4.3 -4.4 54% 76.17 0.0
06 22:55 N 6 16.09 Partly Cloudy SCT095 3.4 -5.3 53% 76.17 0.0
06 22:35 Calm 16.09 Partly Cloudy SCT095 3.5 -5.1 54% 76.17 0.0
06 22:15 Calm 16.09 Fair CLR 3.6 -5 54% 76.17 0.0
06 21:55 Calm 16.09 Fair CLR 5 -4.6 50% 76.17 0.0
06 21:35 N 6 16.09 Fair CLR 5.4 -4.6 49% 76.17 0.0
06 21:15 N 6 16.09 Fair CLR 5.5 -5.1 47% 76.17 0.0
06 20:55 N 6 16.09 Fair CLR 5.8 -5.2 45% 76.17 0.0
06 20:35 N 7 16.09 Fair CLR 6.9 -5.3 42% 6 76.15 0.0
06 20:15 N 11 16.09 Fair CLR 7.7 -5.5 39% 6 76.15 0.0
06 19:55 NW 13 16.09 Fair CLR 8.5 -5.7 36% 7 76.15 0.0
06 19:35 NW 13 16.09 Fair CLR 9 -5.7 35% 7 76.15 0.0
06 19:15 N 13 16.09 Partly Cloudy SCT080 9.5 -5.5 35% 8 76.17 0.0
06 18:55 NW 17 16.09 Partly Cloudy SCT080 9.6 -5.3 10.9 7.3 35% 7 76.17 0.0
06 18:35 N 15 16.09 Fair CLR 9.7 -5.4 34% 8 76.17 0.0
06 18:15 N 15 16.09 Partly Cloudy SCT060 SCT070 10.3 -5 34% 76.2 0.0
06 17:55 NW 17 G 26 16.09 Mostly Cloudy SCT060 BKN070 10.1 -5.7 33% 76.2 0.0
06 17:35 NW 24 G 31 16.09 Partly Cloudy SCT060 SCT070 10.3 -5.7 32% 76.2 0.0
06 17:15 NW 20 G 31 16.09 Partly Cloudy SCT060 SCT070 10.4 -5.6 32% 76.23 0.0
06 16:55 NW 22 G 28 16.09 Mostly Cloudy BKN060 10.6 -6 31% 76.23 0.0
06 16:35 NW 20 G 33 16.09 Mostly Cloudy BKN060 10.4 -6.2 31% 76.23 0.0
06 16:15 NW 28 16.09 Mostly Cloudy BKN060 10.6 -5.6 32% 76.25 0.0
06 15:55 NW 13 G 35 16.09 Mostly Cloudy BKN060 10.5 -6.3 30% 76.28 0.0
06 15:35 NW 22 G 30 16.09 Mostly Cloudy BKN060 10.1 -6 32% 76.28 0.0
06 15:15 NW 26 16.09 Overcast OVC050 9.2 -5.6 35% 6 76.3 0.0
06 14:55 NW 20 16.09 Overcast OVC050 8.9 -5.2 37% 6 76.3 0.0
06 14:35 W 19 G 33 16.09 Overcast OVC049 9.2 -5.3 36% 7 76.33 0.0
06 14:15 NW 22 16.09 Overcast OVC049 8.9 -4.8 38% 6 76.33 0.0
06 13:55 NW 24 G 33 16.09 Overcast OVC049 8.6 -5.1 38% 6 76.33 0.0
06 13:35 W 13 16.09 Overcast OVC049 8 -5 40% 6 76.35 0.0
06 13:15 NW 20 G 39 16.09 Overcast OVC047 7.6 -5.5 39% 5 76.35 0.0
06 12:55 NW 19 16.09 Overcast OVC045 7.2 -5 7.2 3.2 42% 4 76.38 0.0
06 12:35 NW 13 G 19 16.09 Overcast OVC045 6.7 -5.2 43% 4 76.38 0.0
06 12:15 W 19 G 28 16.09 Overcast OVC045 6.5 -5.4 43% 3 76.4 0.0
06 11:55 NW 20 G 33 16.09 Overcast OVC047 6.5 -5.5 42% 3 76.4 0.0
06 11:35 NW 15 G 31 16.09 Overcast BKN045 OVC050 6.4 -5.3 43% 4 76.4 0.0
06 11:15 NW 17 G 28 16.09 Overcast SCT043 OVC050 6.5 -4.6 45% 4 76.4 0.0
06 10:55 NW 19 16.09 Overcast SCT041 OVC050 5.9 -5 46% 3 76.4 0.0
06 10:35 NW 17 16.09 Overcast SCT037 SCT043 OVC050 5.5 -4.6 49% 2 76.4 0.0
06 10:15 NW 19 16.09 Overcast SCT037 OVC050 5.5 -3.6 52% 2 76.4 0.0
06 09:55 NW 17 16.09 Overcast OVC050 5 -3.3 55% 2 76.4 0.0
06 09:35 NW 15 16.09 Overcast OVC050 4.8 -3.2 57% 2 76.4 0.0
06 09:15 NW 17 16.09 Overcast OVC050 4.6 -3.3 57% 1 76.4 0.0
06 08:55 W 15 16.09 Overcast OVC050 4.5 -3.4 57% 2 76.38 0.0
06 08:35 W 11 16.09 Overcast OVC050 4.5 -2.9 59% 2 76.38 0.0
06 08:15 W 11 16.09 Overcast OVC050 4 -2.9 61% 2 76.38 0.0
06 07:55 W 13 16.09 Overcast OVC050 3.8 -2.7 63% 1 76.35 0.0
06 07:35 W 11 16.09 Overcast OVC050 3.6 -2.5 65% 1 76.35 0.0
06 07:15 W 13 16.09 Overcast OVC050 3.5 -2.5 65% 1 76.33 0.0
06 06:55 W 9 16.09 Overcast OVC050 3.2 -2.7 4.5 -0.2 66% 1 76.3 0.0
06 06:35 W 11 16.09 Overcast OVC050 3 -2.7 67% 0 76.28 0.0
06 06:15 W 9 16.09 Overcast OVC050 2.7 -2.7 68% 0 76.28 0.0
06 05:55 NW 9 16.09 Overcast OVC050 2.9 -2.9 66% 1 76.25 0.0
06 05:35 NW 9 16.09 Overcast OVC055 3 -3.2 64% 1 76.25 0.0
06 05:15 NW 11 16.09 Overcast OVC065 2.7 -3.2 65% 0 76.25 0.0
06 04:55 W 11 16.09 Overcast OVC065 2.8 -3.2 65% 0 76.28 0.0
06 04:35 W 13 16.09 Overcast OVC065 2.8 -3.5 64% -0 76.25 0.0
06 04:15 W 13 16.09 Overcast OVC065 2.3 -3.5 66% -1 76.23 0.0
06 03:55 W 7 16.09 Overcast OVC065 1.2 -4 69% -1 76.23 0.0
06 03:35 W 9 16.09 Overcast OVC065 1 -4.5 67% -2 76.23 0.0
06 03:15 W 9 16.09 Mostly Cloudy BKN065 -0.2 -5.2 69% -3 76.23 0.0
06 02:55 W 9 16.09 Fair CLR 0.2 -5.5 66% -3 76.23 0.0
06 02:35 NW 9 16.09 Partly Cloudy SCT070 1.5 -4.9 63% -1 76.2 0.0
06 02:15 NW 11 16.09 Mostly Cloudy BKN070 0.7 -5.2 65% -2 76.2 0.0
06 01:55 W 11 16.09 Fair CLR 1 -5.1 64% -2 76.23 0.0
06 01:35 NW 7 16.09 Partly Cloudy SCT065 2.8 -4.6 59% 1 76.2 0.0
06 01:15 NW 7 16.09 Overcast OVC075 4.1 -4.9 52% 3 76.2 0.0
06 00:55 NW 9 16.09 Overcast OVC075 4.5 -4.4 9 3.6 53% 3 76.2 0.0
06 00:35 NW 9 16.09 Overcast OVC075 4.5 -4.5 52% 3 76.23 0.0
06 00:15 NW 7 16.09 Overcast OVC075 4.4 -4.4 53% 3 76.2 0.0
05 23:55 NW 6 16.09 Overcast SCT065 OVC075 4.2 -4.7 53% 76.17 0.0
05 23:35 NW 6 16.09 Overcast OVC075 3.6 -5 54% 76.2 0.0
05 23:15 NW 7 16.09 Overcast OVC070 4 -5.3 51% 2 76.2 0.0
05 22:55 NW 6 16.09 Mostly Cloudy BKN070 3.6 -5.4 52% 76.17 0.0
05 22:35 NW 6 16.09 Mostly Cloudy BKN070 4.5 -5.3 49% 76.15 0.0
05 22:15 NW 11 16.09 Mostly Cloudy BKN070 5 -5.5 47% 3 76.15 0.0
05 21:55 NW 9 16.09 Partly Cloudy SCT070 5 -5.6 47% 3 76.15 0.0
05 21:35 NW 9 16.09 Fair CLR 5.5 -5.6 45% 4 76.1 0.0
05 21:15 N 15 16.09 Partly Cloudy SCT075 5.7 -5.7 44% 3 76.1 0.0
05 20:55 N 13 16.09 Partly Cloudy SCT075 6.2 -5.4 44% 4 76.07 0.0
05 20:35 NW 17 G 26 16.09 Partly Cloudy SCT075 6.8 -5.4 42% 4 76.05 0.0
05 20:15 NW 15 16.09 Mostly Cloudy BKN075 7.2 -5.5 40% 5 76.05 0.0
05 19:55 NW 15 16.09 Mostly Cloudy BKN075 7.6 -5.8 38% 5 76.05 0.0
05 19:35 NW 19 G 28 16.09 Overcast OVC075 8.1 -5.6 38% 5 76.02 0.0
05 19:15 NW 20 16.09 Mostly Cloudy SCT060 BKN075 8.3 -5.6 37% 5 76.02 0.0
05 18:55 NW 22 G 28 16.09 Mostly Cloudy SCT060 BKN075 9.2 -5.7 10.8 9 35% 6 76 0.0
05 18:35 NW 20 G 33 16.09 Mostly Cloudy SCT055 BKN075 9.5 -5.7 34% 7 75.97 0.0
05 18:15 NW 20 G 33 16.09 Mostly Cloudy SCT055 SCT070 BKN075 9.5 -5.5 35% 7 75.97 0.0
Date Time (cdt) Wind (kph) Vis. (km) Weather Sky Cond. Air Dwpt Max. Min. Relative Humidity Wind Chill (°C) Heat Index (°C) altimeter (cm) sea level (mb) 1 hr 3 hr 6 hr
6 hour
Temperature (ºC) Pressure Precipitation (cm)